sensor_id;sensor_type;location;lat;lon;timestamp;temperature;humidity
8313;DHT22;4194;43.408;24.626;2022-09-09T00:01:52;19.60;99.90
8313;DHT22;4194;43.408;24.626;2022-09-09T00:04:33;19.50;99.90
8313;DHT22;4194;43.408;24.626;2022-09-09T00:07:20;18.90;99.90
8313;DHT22;4194;43.408;24.626;2022-09-09T00:15:27;19.30;99.90
8313;DHT22;4194;43.408;24.626;2022-09-09T00:21:07;19.00;99.90
8313;DHT22;4194;43.408;24.626;2022-09-09T00:23:29;19.00;99.90
8313;DHT22;4194;43.408;24.626;2022-09-09T00:29:10;19.30;99.90
8313;DHT22;4194;43.408;24.626;2022-09-09T00:31:39;19.30;99.90
8313;DHT22;4194;43.408;24.626;2022-09-09T00:34:21;19.30;99.90
8313;DHT22;4194;43.408;24.626;2022-09-09T00:36:50;19.10;99.90
8313;DHT22;4194;43.408;24.626;2022-09-09T00:39:36;19.20;99.90
8313;DHT22;4194;43.408;24.626;2022-09-09T00:42:18;18.80;99.90
8313;DHT22;4194;43.408;24.626;2022-09-09T00:47:53;18.90;99.90
8313;DHT22;4194;43.408;24.626;2022-09-09T00:56:18;17.80;99.90
8313;DHT22;4194;43.408;24.626;2022-09-09T01:01:35;19.40;99.90
8313;DHT22;4194;43.408;24.626;2022-09-09T01:04:07;20.10;99.90
8313;DHT22;4194;43.408;24.626;2022-09-09T01:06:36;19.20;99.90
8313;DHT22;4194;43.408;24.626;2022-09-09T01:09:18;20.00;99.90
8313;DHT22;4194;43.408;24.626;2022-09-09T01:17:21;18.90;99.90
8313;DHT22;4194;43.408;24.626;2022-09-09T01:28:30;19.50;99.90
8313;DHT22;4194;43.408;24.626;2022-09-09T01:30:56;18.70;99.90
8313;DHT22;4194;43.408;24.626;2022-09-09T01:33:22;19.30;99.90
8313;DHT22;4194;43.408;24.626;2022-09-09T01:36:04;18.80;99.90
8313;DHT22;4194;43.408;24.626;2022-09-09T01:38:31;19.00;99.90
8313;DHT22;4194;43.408;24.626;2022-09-09T01:40:58;18.70;99.90
8313;DHT22;4194;43.408;24.626;2022-09-09T01:43:24;18.80;99.90
8313;DHT22;4194;43.408;24.626;2022-09-09T01:45:53;18.80;99.90
8313;DHT22;4194;43.408;24.626;2022-09-09T01:48:21;18.80;99.90
8313;DHT22;4194;43.408;24.626;2022-09-09T01:50:48;18.80;99.90
8313;DHT22;4194;43.408;24.626;2022-09-09T01:53:15;19.60;99.90
8313;DHT22;4194;43.408;24.626;2022-09-09T01:55:48;17.90;99.90
8313;DHT22;4194;43.408;24.626;2022-09-09T02:04:05;18.60;99.90
8313;DHT22;4194;43.408;24.626;2022-09-09T02:06:40;17.70;99.90
8313;DHT22;4194;43.408;24.626;2022-09-09T02:09:07;19.10;99.90
8313;DHT22;4194;43.408;24.626;2022-09-09T02:11:36;18.50;99.90
8313;DHT22;4194;43.408;24.626;2022-09-09T02:14:21;18.40;99.90
8313;DHT22;4194;43.408;24.626;2022-09-09T02:17:03;18.40;99.90
8313;DHT22;4194;43.408;24.626;2022-09-09T02:19:39;17.00;99.90
8313;DHT22;4194;43.408;24.626;2022-09-09T02:22:07;19.00;99.90
8313;DHT22;4194;43.408;24.626;2022-09-09T02:24:36;18.00;99.90
8313;DHT22;4194;43.408;24.626;2022-09-09T02:27:05;18.90;99.90
8313;DHT22;4194;43.408;24.626;2022-09-09T02:29:37;18.40;99.90
8313;DHT22;4194;43.408;24.626;2022-09-09T02:32:06;18.90;99.90
8313;DHT22;4194;43.408;24.626;2022-09-09T02:34:38;19.10;99.90
8313;DHT22;4194;43.408;24.626;2022-09-09T02:37:06;18.30;99.90
8313;DHT22;4194;43.408;24.626;2022-09-09T02:39:33;18.10;99.90
8313;DHT22;4194;43.408;24.626;2022-09-09T02:41:59;18.30;99.90
8313;DHT22;4194;43.408;24.626;2022-09-09T02:44:25;18.10;99.90
8313;DHT22;4194;43.408;24.626;2022-09-09T02:49:59;18.00;99.90
8313;DHT22;4194;43.408;24.626;2022-09-09T02:55:29;19.40;99.90
8313;DHT22;4194;43.408;24.626;2022-09-09T02:58:04;18.20;99.90
8313;DHT22;4194;43.408;24.626;2022-09-09T03:00:31;19.30;99.90
8313;DHT22;4194;43.408;24.626;2022-09-09T03:02:58;18.20;99.90
8313;DHT22;4194;43.408;24.626;2022-09-09T03:05:24;17.60;99.90
8313;DHT22;4194;43.408;24.626;2022-09-09T03:07:50;18.20;99.90
8313;DHT22;4194;43.408;24.626;2022-09-09T03:10:16;18.10;99.90
8313;DHT22;4194;43.408;24.626;2022-09-09T03:12:43;18.10;99.90
8313;DHT22;4194;43.408;24.626;2022-09-09T03:15:09;17.90;99.90
8313;DHT22;4194;43.408;24.626;2022-09-09T03:17:35;18.70;99.90
8313;DHT22;4194;43.408;24.626;2022-09-09T03:20:05;18.10;99.90
8313;DHT22;4194;43.408;24.626;2022-09-09T03:22:30;18.10;99.90
8313;DHT22;4194;43.408;24.626;2022-09-09T03:24:56;17.50;99.90
8313;DHT22;4194;43.408;24.626;2022-09-09T03:29:48;18.80;99.90
8313;DHT22;4194;43.408;24.626;2022-09-09T03:32:16;18.00;99.90
8313;DHT22;4194;43.408;24.626;2022-09-09T03:34:43;18.00;99.90
8313;DHT22;4194;43.408;24.626;2022-09-09T03:37:08;17.80;99.90
8313;DHT22;4194;43.408;24.626;2022-09-09T03:39:34;17.60;99.90
8313;DHT22;4194;43.408;24.626;2022-09-09T03:42:00;19.10;99.90
8313;DHT22;4194;43.408;24.626;2022-09-09T03:44:29;18.20;99.90
8313;DHT22;4194;43.408;24.626;2022-09-09T03:46:55;18.40;99.90
8313;DHT22;4194;43.408;24.626;2022-09-09T03:49:21;17.90;99.90
8313;DHT22;4194;43.408;24.626;2022-09-09T03:51:48;16.70;99.90
8313;DHT22;4194;43.408;24.626;2022-09-09T03:54:13;17.90;99.90
8313;DHT22;4194;43.408;24.626;2022-09-09T03:56:39;17.30;99.90
8313;DHT22;4194;43.408;24.626;2022-09-09T03:59:07;19.30;99.90
8313;DHT22;4194;43.408;24.626;2022-09-09T04:01:34;18.00;99.90
8313;DHT22;4194;43.408;24.626;2022-09-09T04:04:00;17.80;99.90
8313;DHT22;4194;43.408;24.626;2022-09-09T04:06:28;19.30;99.90
8313;DHT22;4194;43.408;24.626;2022-09-09T04:08:54;19.50;99.90
8313;DHT22;4194;43.408;24.626;2022-09-09T04:11:21;18.40;99.90
8313;DHT22;4194;43.408;24.626;2022-09-09T04:13:46;18.30;99.90
8313;DHT22;4194;43.408;24.626;2022-09-09T04:16:16;18.50;99.90
8313;DHT22;4194;43.408;24.626;2022-09-09T04:18:42;19.60;99.90
8313;DHT22;4194;43.408;24.626;2022-09-09T04:21:09;19.70;99.90
8313;DHT22;4194;43.408;24.626;2022-09-09T04:23:36;18.50;99.90
8313;DHT22;4194;43.408;24.626;2022-09-09T04:26:02;18.50;99.90
8313;DHT22;4194;43.408;24.626;2022-09-09T04:28:30;19.30;99.90
8313;DHT22;4194;43.408;24.626;2022-09-09T04:31:03;18.60;99.90
8313;DHT22;4194;43.408;24.626;2022-09-09T04:33:29;18.80;99.90
8313;DHT22;4194;43.408;24.626;2022-09-09T04:35:56;18.70;99.90
8313;DHT22;4194;43.408;24.626;2022-09-09T04:38:22;18.60;99.90
8313;DHT22;4194;43.408;24.626;2022-09-09T04:40:50;19.20;99.90
8313;DHT22;4194;43.408;24.626;2022-09-09T04:43:17;18.80;99.90
8313;DHT22;4194;43.408;24.626;2022-09-09T04:45:47;18.80;99.90
8313;DHT22;4194;43.408;24.626;2022-09-09T04:48:13;19.00;99.90
8313;DHT22;4194;43.408;24.626;2022-09-09T04:50:39;19.50;99.90
8313;DHT22;4194;43.408;24.626;2022-09-09T04:53:06;19.10;99.90
8313;DHT22;4194;43.408;24.626;2022-09-09T04:55:32;19.70;99.90
8313;DHT22;4194;43.408;24.626;2022-09-09T04:58:04;19.30;99.90
8313;DHT22;4194;43.408;24.626;2022-09-09T05:00:30;19.90;99.90
8313;DHT22;4194;43.408;24.626;2022-09-09T05:02:56;19.60;99.90
8313;DHT22;4194;43.408;24.626;2022-09-09T05:05:21;19.60;99.90
8313;DHT22;4194;43.408;24.626;2022-09-09T05:07:47;19.70;99.90
8313;DHT22;4194;43.408;24.626;2022-09-09T05:10:14;19.80;99.90
8313;DHT22;4194;43.408;24.626;2022-09-09T05:12:41;19.90;99.90
8313;DHT22;4194;43.408;24.626;2022-09-09T05:15:07;20.90;99.90
8313;DHT22;4194;43.408;24.626;2022-09-09T05:17:33;20.00;99.90
8313;DHT22;4194;43.408;24.626;2022-09-09T05:19:59;20.00;99.90
8313;DHT22;4194;43.408;24.626;2022-09-09T05:22:24;20.60;99.90
8313;DHT22;4194;43.408;24.626;2022-09-09T05:24:50;21.00;99.90
8313;DHT22;4194;43.408;24.626;2022-09-09T05:27:17;21.10;99.90
8313;DHT22;4194;43.408;24.626;2022-09-09T05:29:45;20.20;99.90
8313;DHT22;4194;43.408;24.626;2022-09-09T05:32:11;21.00;99.90
8313;DHT22;4194;43.408;24.626;2022-09-09T05:34:36;21.60;99.90
8313;DHT22;4194;43.408;24.626;2022-09-09T05:37:05;21.60;99.90
8313;DHT22;4194;43.408;24.626;2022-09-09T05:39:32;21.40;99.90
8313;DHT22;4194;43.408;24.626;2022-09-09T05:41:58;20.80;99.90
8313;DHT22;4194;43.408;24.626;2022-09-09T05:44:23;21.60;99.90
8313;DHT22;4194;43.408;24.626;2022-09-09T05:46:53;21.10;99.90
8313;DHT22;4194;43.408;24.626;2022-09-09T05:49:19;21.90;99.90
8313;DHT22;4194;43.408;24.626;2022-09-09T05:51:46;22.20;99.90
8313;DHT22;4194;43.408;24.626;2022-09-09T05:54:12;22.60;99.90
8313;DHT22;4194;43.408;24.626;2022-09-09T05:56:41;22.30;99.90
8313;DHT22;4194;43.408;24.626;2022-09-09T05:59:13;22.50;99.90
8313;DHT22;4194;43.408;24.626;2022-09-09T06:01:40;22.60;99.90
8313;DHT22;4194;43.408;24.626;2022-09-09T06:04:06;22.80;99.90
8313;DHT22;4194;43.408;24.626;2022-09-09T06:06:37;22.80;99.90
8313;DHT22;4194;43.408;24.626;2022-09-09T06:09:06;23.10;99.90
8313;DHT22;4194;43.408;24.626;2022-09-09T06:11:38;23.00;99.90
8313;DHT22;4194;43.408;24.626;2022-09-09T06:14:05;23.30;99.20
8313;DHT22;4194;43.408;24.626;2022-09-09T06:16:31;23.50;97.20
8313;DHT22;4194;43.408;24.626;2022-09-09T06:19:00;23.50;97.30
8313;DHT22;4194;43.408;24.626;2022-09-09T06:21:30;23.60;96.00
8313;DHT22;4194;43.408;24.626;2022-09-09T06:23:56;23.80;93.30
8313;DHT22;4194;43.408;24.626;2022-09-09T06:26:26;23.90;92.40
8313;DHT22;4194;43.408;24.626;2022-09-09T06:28:54;24.10;93.80
8313;DHT22;4194;43.408;24.626;2022-09-09T06:31:22;24.30;93.90
8313;DHT22;4194;43.408;24.626;2022-09-09T06:33:49;24.30;94.00
8313;DHT22;4194;43.408;24.626;2022-09-09T06:36:24;25.00;91.00
8313;DHT22;4194;43.408;24.626;2022-09-09T06:38:50;24.50;90.30
8313;DHT22;4194;43.408;24.626;2022-09-09T06:41:17;24.80;91.00
8313;DHT22;4194;43.408;24.626;2022-09-09T06:43:44;25.50;90.20
8313;DHT22;4194;43.408;24.626;2022-09-09T06:46:15;24.80;89.60
8313;DHT22;4194;43.408;24.626;2022-09-09T06:48:41;24.50;87.20
8313;DHT22;4194;43.408;24.626;2022-09-09T06:51:10;25.10;87.80
8313;DHT22;4194;43.408;24.626;2022-09-09T06:53:41;25.70;87.00
8313;DHT22;4194;43.408;24.626;2022-09-09T06:58:37;24.90;85.00
8313;DHT22;4194;43.408;24.626;2022-09-09T07:01:05;27.10;86.20
8313;DHT22;4194;43.408;24.626;2022-09-09T07:03:31;26.40;84.80
8313;DHT22;4194;43.408;24.626;2022-09-09T07:05:57;26.40;83.30
8313;DHT22;4194;43.408;24.626;2022-09-09T07:08:23;27.20;83.60
8313;DHT22;4194;43.408;24.626;2022-09-09T07:10:50;26.70;81.50
8313;DHT22;4194;43.408;24.626;2022-09-09T07:13:26;26.80;82.30
8313;DHT22;4194;43.408;24.626;2022-09-09T07:15:53;27.10;80.10
8313;DHT22;4194;43.408;24.626;2022-09-09T07:18:19;27.10;80.10
8313;DHT22;4194;43.408;24.626;2022-09-09T07:20:55;28.20;76.10
8313;DHT22;4194;43.408;24.626;2022-09-09T07:23:23;27.10;72.60
8313;DHT22;4194;43.408;24.626;2022-09-09T07:25:49;27.00;73.80
8313;DHT22;4194;43.408;24.626;2022-09-09T07:28:16;27.40;69.60
8313;DHT22;4194;43.408;24.626;2022-09-09T07:30:42;28.30;68.40
8313;DHT22;4194;43.408;24.626;2022-09-09T07:33:08;27.50;68.00
8313;DHT22;4194;43.408;24.626;2022-09-09T07:35:35;27.30;68.60
8313;DHT22;4194;43.408;24.626;2022-09-09T07:38:03;27.80;67.80
8313;DHT22;4194;43.408;24.626;2022-09-09T07:40:32;28.10;68.10
8313;DHT22;4194;43.408;24.626;2022-09-09T07:43:01;28.00;68.60
8313;DHT22;4194;43.408;24.626;2022-09-09T07:45:27;28.30;65.80
8313;DHT22;4194;43.408;24.626;2022-09-09T07:47:58;28.30;66.30
8313;DHT22;4194;43.408;24.626;2022-09-09T07:50:24;28.60;63.80
8313;DHT22;4194;43.408;24.626;2022-09-09T07:52:51;29.00;64.20
8313;DHT22;4194;43.408;24.626;2022-09-09T07:55:17;29.10;64.90
8313;DHT22;4194;43.408;24.626;2022-09-09T07:57:43;29.20;65.10
8313;DHT22;4194;43.408;24.626;2022-09-09T08:00:09;28.40;62.50
8313;DHT22;4194;43.408;24.626;2022-09-09T08:02:36;29.20;64.20
8313;DHT22;4194;43.408;24.626;2022-09-09T08:05:01;29.40;64.70
8313;DHT22;4194;43.408;24.626;2022-09-09T08:07:27;30.00;65.20
8313;DHT22;4194;43.408;24.626;2022-09-09T08:09:54;29.30;62.20
8313;DHT22;4194;43.408;24.626;2022-09-09T08:12:21;29.10;61.60
8313;DHT22;4194;43.408;24.626;2022-09-09T08:14:47;29.60;62.80
8313;DHT22;4194;43.408;24.626;2022-09-09T08:17:14;29.60;62.40
8313;DHT22;4194;43.408;24.626;2022-09-09T08:19:39;29.70;63.00
8313;DHT22;4194;43.408;24.626;2022-09-09T08:22:05;29.70;62.70
8313;DHT22;4194;43.408;24.626;2022-09-09T08:24:31;30.10;61.80
8313;DHT22;4194;43.408;24.626;2022-09-09T08:29:23;29.80;60.00
8313;DHT22;4194;43.408;24.626;2022-09-09T08:31:53;31.00;59.80
8313;DHT22;4194;43.408;24.626;2022-09-09T08:34:20;30.00;59.20
8313;DHT22;4194;43.408;24.626;2022-09-09T08:36:47;30.50;58.70
8313;DHT22;4194;43.408;24.626;2022-09-09T08:39:15;30.70;58.80
8313;DHT22;4194;43.408;24.626;2022-09-09T08:58:09;31.10;58.50
8313;DHT22;4194;43.408;24.626;2022-09-09T09:11:50;31.80;58.90
8313;DHT22;4194;43.408;24.626;2022-09-09T09:14:24;31.50;56.40
8313;DHT22;4194;43.408;24.626;2022-09-09T09:19:33;32.20;57.00
8313;DHT22;4194;43.408;24.626;2022-09-09T09:24:53;32.20;57.60
8313;DHT22;4194;43.408;24.626;2022-09-09T09:27:43;32.50;56.00
8313;DHT22;4194;43.408;24.626;2022-09-09T09:30:20;33.10;56.00
8313;DHT22;4194;43.408;24.626;2022-09-09T09:32:53;32.90;55.60
8313;DHT22;4194;43.408;24.626;2022-09-09T09:35:20;33.30;55.80
8313;DHT22;4194;43.408;24.626;2022-09-09T09:37:46;32.90;56.00
8313;DHT22;4194;43.408;24.626;2022-09-09T09:40:18;33.00;54.70
8313;DHT22;4194;43.408;24.626;2022-09-09T09:42:52;32.90;55.10
8313;DHT22;4194;43.408;24.626;2022-09-09T09:45:41;33.00;55.70
8313;DHT22;4194;43.408;24.626;2022-09-09T09:48:12;33.20;55.10
8313;DHT22;4194;43.408;24.626;2022-09-09T09:50:59;33.90;55.00
8313;DHT22;4194;43.408;24.626;2022-09-09T09:53:29;33.30;53.90
8313;DHT22;4194;43.408;24.626;2022-09-09T09:56:01;32.50;53.00
8313;DHT22;4194;43.408;24.626;2022-09-09T09:58:30;33.70;54.40
8313;DHT22;4194;43.408;24.626;2022-09-09T10:00:57;33.50;53.90
8313;DHT22;4194;43.408;24.626;2022-09-09T10:03:33;34.00;54.90
8313;DHT22;4194;43.408;24.626;2022-09-09T10:06:04;34.10;55.30
8313;DHT22;4194;43.408;24.626;2022-09-09T10:08:34;34.40;53.80
8313;DHT22;4194;43.408;24.626;2022-09-09T10:19:37;34.20;54.30
8313;DHT22;4194;43.408;24.626;2022-09-09T10:22:27;34.70;53.70
8313;DHT22;4194;43.408;24.626;2022-09-09T10:27:36;34.60;52.40
8313;DHT22;4194;43.408;24.626;2022-09-09T10:30:18;34.20;53.20
8313;DHT22;4194;43.408;24.626;2022-09-09T10:43:34;34.80;50.50
8313;DHT22;4194;43.408;24.626;2022-09-09T10:57:27;35.20;50.50
8313;DHT22;4194;43.408;24.626;2022-09-09T10:59:56;35.30;49.00
8313;DHT22;4194;43.408;24.626;2022-09-09T11:02:30;35.70;49.40
8313;DHT22;4194;43.408;24.626;2022-09-09T11:12:56;35.10;49.60
8313;DHT22;4194;43.408;24.626;2022-09-09T11:15:35;34.80;50.20
8313;DHT22;4194;43.408;24.626;2022-09-09T11:18:02;34.70;50.80
8313;DHT22;4194;43.408;24.626;2022-09-09T11:20:29;34.50;51.00
8313;DHT22;4194;43.408;24.626;2022-09-09T11:23:11;34.70;50.40
8313;DHT22;4194;43.408;24.626;2022-09-09T11:25:50;34.40;51.10
8313;DHT22;4194;43.408;24.626;2022-09-09T11:41:50;33.30;52.20
8313;DHT22;4194;43.408;24.626;2022-09-09T11:44:30;33.60;53.70
8313;DHT22;4194;43.408;24.626;2022-09-09T11:46:56;33.80;53.80
8313;DHT22;4194;43.408;24.626;2022-09-09T11:49:39;34.00;53.80
8313;DHT22;4194;43.408;24.626;2022-09-09T11:54:51;34.40;52.30
8313;DHT22;4194;43.408;24.626;2022-09-09T11:57:32;34.70;51.60
8313;DHT22;4194;43.408;24.626;2022-09-09T11:59:58;34.30;51.90
8313;DHT22;4194;43.408;24.626;2022-09-09T12:02:26;33.70;51.60
8313;DHT22;4194;43.408;24.626;2022-09-09T12:05:08;34.80;52.80
8313;DHT22;4194;43.408;24.626;2022-09-09T12:07:52;33.70;52.60
8313;DHT22;4194;43.408;24.626;2022-09-09T12:10:29;33.30;54.40
8313;DHT22;4194;43.408;24.626;2022-09-09T12:12:55;32.70;54.20
8313;DHT22;4194;43.408;24.626;2022-09-09T12:15:32;32.10;54.10
8313;DHT22;4194;43.408;24.626;2022-09-09T12:17:59;32.60;55.60
8313;DHT22;4194;43.408;24.626;2022-09-09T12:20:31;33.30;54.70
8313;DHT22;4194;43.408;24.626;2022-09-09T12:31:25;34.70;54.20
8313;DHT22;4194;43.408;24.626;2022-09-09T12:33:53;34.40;54.50
8313;DHT22;4194;43.408;24.626;2022-09-09T12:38:47;34.30;53.30
8313;DHT22;4194;43.408;24.626;2022-09-09T12:41:26;35.10;53.80
8313;DHT22;4194;43.408;24.626;2022-09-09T12:44:06;33.90;52.90
8313;DHT22;4194;43.408;24.626;2022-09-09T12:46:41;33.30;55.60
8313;DHT22;4194;43.408;24.626;2022-09-09T12:49:34;33.80;57.80
8313;DHT22;4194;43.408;24.626;2022-09-09T12:52:08;31.50;57.40
8313;DHT22;4194;43.408;24.626;2022-09-09T12:54:37;32.00;58.40
8313;DHT22;4194;43.408;24.626;2022-09-09T12:57:12;31.90;59.80
8313;DHT22;4194;43.408;24.626;2022-09-09T12:59:40;31.90;59.80
8313;DHT22;4194;43.408;24.626;2022-09-09T13:02:25;31.70;60.30
8313;DHT22;4194;43.408;24.626;2022-09-09T13:04:52;31.10;60.20
8313;DHT22;4194;43.408;24.626;2022-09-09T13:07:19;31.30;61.10
8313;DHT22;4194;43.408;24.626;2022-09-09T13:09:46;31.80;61.20
8313;DHT22;4194;43.408;24.626;2022-09-09T13:12:19;31.40;61.40
8313;DHT22;4194;43.408;24.626;2022-09-09T13:14:48;31.30;62.90
8313;DHT22;4194;43.408;24.626;2022-09-09T13:17:26;30.70;61.20
8313;DHT22;4194;43.408;24.626;2022-09-09T13:19:55;29.90;60.00
8313;DHT22;4194;43.408;24.626;2022-09-09T13:22:31;30.40;60.60
8313;DHT22;4194;43.408;24.626;2022-09-09T13:27:30;30.80;62.60
8313;DHT22;4194;43.408;24.626;2022-09-09T13:29:56;30.50;64.00
8313;DHT22;4194;43.408;24.626;2022-09-09T13:32:24;30.60;63.60
8313;DHT22;4194;43.408;24.626;2022-09-09T13:34:56;30.50;64.00
8313;DHT22;4194;43.408;24.626;2022-09-09T13:39:54;30.20;62.50
8313;DHT22;4194;43.408;24.626;2022-09-09T13:42:31;31.30;63.40
8313;DHT22;4194;43.408;24.626;2022-09-09T13:45:00;30.10;62.00
8313;DHT22;4194;43.408;24.626;2022-09-09T13:47:32;30.60;65.70
8313;DHT22;4194;43.408;24.626;2022-09-09T13:50:09;30.60;65.70
8313;DHT22;4194;43.408;24.626;2022-09-09T13:52:35;30.80;61.50
8313;DHT22;4194;43.408;24.626;2022-09-09T13:55:01;30.50;61.00
8313;DHT22;4194;43.408;24.626;2022-09-09T13:57:26;30.60;62.00
8313;DHT22;4194;43.408;24.626;2022-09-09T13:59:53;30.60;62.50
8313;DHT22;4194;43.408;24.626;2022-09-09T14:02:22;30.50;62.00
8313;DHT22;4194;43.408;24.626;2022-09-09T14:04:49;30.50;61.70
8313;DHT22;4194;43.408;24.626;2022-09-09T14:07:18;30.30;62.30
8313;DHT22;4194;43.408;24.626;2022-09-09T14:09:44;29.70;64.50
8313;DHT22;4194;43.408;24.626;2022-09-09T14:12:14;30.10;65.60
8313;DHT22;4194;43.408;24.626;2022-09-09T14:14:41;30.00;63.40
8313;DHT22;4194;43.408;24.626;2022-09-09T14:17:08;29.90;63.50
8313;DHT22;4194;43.408;24.626;2022-09-09T14:19:34;29.80;65.10
8313;DHT22;4194;43.408;24.626;2022-09-09T14:22:00;29.90;65.50
8313;DHT22;4194;43.408;24.626;2022-09-09T14:24:26;29.80;64.40
8313;DHT22;4194;43.408;24.626;2022-09-09T14:29:19;29.30;67.30
8313;DHT22;4194;43.408;24.626;2022-09-09T14:31:45;29.30;64.90
8313;DHT22;4194;43.408;24.626;2022-09-09T14:34:11;29.00;65.00
8313;DHT22;4194;43.408;24.626;2022-09-09T14:36:37;29.40;65.40
8313;DHT22;4194;43.408;24.626;2022-09-09T14:39:03;29.10;65.80
8313;DHT22;4194;43.408;24.626;2022-09-09T14:43:55;28.90;66.60
8313;DHT22;4194;43.408;24.626;2022-09-09T14:46:22;28.80;66.80
8313;DHT22;4194;43.408;24.626;2022-09-09T14:48:48;28.40;67.30
8313;DHT22;4194;43.408;24.626;2022-09-09T14:51:20;28.70;69.60
8313;DHT22;4194;43.408;24.626;2022-09-09T14:53:50;28.10;67.30
8313;DHT22;4194;43.408;24.626;2022-09-09T14:56:18;29.20;68.10
8313;DHT22;4194;43.408;24.626;2022-09-09T14:58:44;28.80;68.50
8313;DHT22;4194;43.408;24.626;2022-09-09T15:01:15;29.10;68.60
8313;DHT22;4194;43.408;24.626;2022-09-09T15:03:52;29.10;67.20
8313;DHT22;4194;43.408;24.626;2022-09-09T15:06:19;29.20;67.00
8313;DHT22;4194;43.408;24.626;2022-09-09T15:08:46;29.50;66.80
8313;DHT22;4194;43.408;24.626;2022-09-09T15:11:14;29.60;65.20
8313;DHT22;4194;43.408;24.626;2022-09-09T15:13:41;30.80;66.20
8313;DHT22;4194;43.408;24.626;2022-09-09T15:16:11;36.30;54.10
8313;DHT22;4194;43.408;24.626;2022-09-09T15:18:37;38.00;53.40
8313;DHT22;4194;43.408;24.626;2022-09-09T15:21:13;38.00;53.70
8313;DHT22;4194;43.408;24.626;2022-09-09T15:23:39;39.70;48.30
8313;DHT22;4194;43.408;24.626;2022-09-09T15:26:05;39.60;48.00
8313;DHT22;4194;43.408;24.626;2022-09-09T15:28:32;39.50;48.60
8313;DHT22;4194;43.408;24.626;2022-09-09T15:31:06;36.70;51.80
8313;DHT22;4194;43.408;24.626;2022-09-09T15:33:33;35.50;54.20
8313;DHT22;4194;43.408;24.626;2022-09-09T15:35:59;34.00;57.50
8313;DHT22;4194;43.408;24.626;2022-09-09T15:38:25;33.00;58.60
8313;DHT22;4194;43.408;24.626;2022-09-09T15:40:54;32.10;61.20
8313;DHT22;4194;43.408;24.626;2022-09-09T15:43:21;31.80;62.20
8313;DHT22;4194;43.408;24.626;2022-09-09T15:45:52;31.60;62.80
8313;DHT22;4194;43.408;24.626;2022-09-09T15:48:30;30.80;64.40
8313;DHT22;4194;43.408;24.626;2022-09-09T15:51:04;31.00;66.80
8313;DHT22;4194;43.408;24.626;2022-09-09T15:53:30;30.10;67.40
8313;DHT22;4194;43.408;24.626;2022-09-09T15:55:58;30.10;68.00
8313;DHT22;4194;43.408;24.626;2022-09-09T15:58:24;29.80;68.90
8313;DHT22;4194;43.408;24.626;2022-09-09T16:00:50;29.60;70.00
8313;DHT22;4194;43.408;24.626;2022-09-09T16:03:16;29.20;70.60
8313;DHT22;4194;43.408;24.626;2022-09-09T16:05:42;28.70;70.20
8313;DHT22;4194;43.408;24.626;2022-09-09T16:08:08;28.10;70.10
8313;DHT22;4194;43.408;24.626;2022-09-09T16:10:34;28.30;72.40
8313;DHT22;4194;43.408;24.626;2022-09-09T16:13:00;28.20;71.90
8313;DHT22;4194;43.408;24.626;2022-09-09T16:15:25;28.00;73.50
8313;DHT22;4194;43.408;24.626;2022-09-09T16:17:53;28.00;74.70
8313;DHT22;4194;43.408;24.626;2022-09-09T16:20:19;27.40;75.20
8313;DHT22;4194;43.408;24.626;2022-09-09T16:22:45;28.00;76.50
8313;DHT22;4194;43.408;24.626;2022-09-09T16:25:11;27.20;77.60
8313;DHT22;4194;43.408;24.626;2022-09-09T16:27:37;27.80;79.60
8313;DHT22;4194;43.408;24.626;2022-09-09T16:30:03;26.90;79.30
8313;DHT22;4194;43.408;24.626;2022-09-09T16:32:29;26.70;79.60
8313;DHT22;4194;43.408;24.626;2022-09-09T16:34:55;26.20;79.50
8313;DHT22;4194;43.408;24.626;2022-09-09T16:37:21;27.30;80.70
8313;DHT22;4194;43.408;24.626;2022-09-09T16:39:47;26.60;83.10
8313;DHT22;4194;43.408;24.626;2022-09-09T16:42:12;26.20;83.70
8313;DHT22;4194;43.408;24.626;2022-09-09T16:44:38;26.30;84.00
8313;DHT22;4194;43.408;24.626;2022-09-09T16:47:04;26.80;85.40
8313;DHT22;4194;43.408;24.626;2022-09-09T16:49:30;26.00;85.50
8313;DHT22;4194;43.408;24.626;2022-09-09T16:51:58;26.30;88.10
8313;DHT22;4194;43.408;24.626;2022-09-09T16:54:24;25.60;89.20
8313;DHT22;4194;43.408;24.626;2022-09-09T16:59:20;25.50;90.80
8313;DHT22;4194;43.408;24.626;2022-09-09T17:01:49;26.00;91.30
8313;DHT22;4194;43.408;24.626;2022-09-09T17:04:17;26.30;92.20
8313;DHT22;4194;43.408;24.626;2022-09-09T17:06:50;25.10;92.30
8313;DHT22;4194;43.408;24.626;2022-09-09T17:09:16;25.00;93.80
8313;DHT22;4194;43.408;24.626;2022-09-09T17:11:43;24.80;94.70
8313;DHT22;4194;43.408;24.626;2022-09-09T17:14:13;24.80;95.80
8313;DHT22;4194;43.408;24.626;2022-09-09T17:16:39;24.50;96.70
8313;DHT22;4194;43.408;24.626;2022-09-09T17:19:05;25.10;98.10
8313;DHT22;4194;43.408;24.626;2022-09-09T17:21:32;24.50;98.20
8313;DHT22;4194;43.408;24.626;2022-09-09T17:23:58;24.50;99.10
8313;DHT22;4194;43.408;24.626;2022-09-09T17:26:28;24.10;99.20
8313;DHT22;4194;43.408;24.626;2022-09-09T17:28:55;24.50;99.90
8313;DHT22;4194;43.408;24.626;2022-09-09T17:31:21;24.90;99.90
8313;DHT22;4194;43.408;24.626;2022-09-09T17:33:48;24.30;99.90
8313;DHT22;4194;43.408;24.626;2022-09-09T17:41:26;23.80;99.90
8313;DHT22;4194;43.408;24.626;2022-09-09T17:43:53;23.60;99.90
8313;DHT22;4194;43.408;24.626;2022-09-09T17:46:21;23.90;99.90
8313;DHT22;4194;43.408;24.626;2022-09-09T17:48:48;24.40;99.90
8313;DHT22;4194;43.408;24.626;2022-09-09T17:51:18;22.60;99.90
8313;DHT22;4194;43.408;24.626;2022-09-09T17:53:47;23.60;99.90
8313;DHT22;4194;43.408;24.626;2022-09-09T17:56:15;23.60;99.90
8313;DHT22;4194;43.408;24.626;2022-09-09T17:58:41;22.40;99.90
8313;DHT22;4194;43.408;24.626;2022-09-09T18:01:12;23.70;99.90
8313;DHT22;4194;43.408;24.626;2022-09-09T18:03:40;23.60;99.90
8313;DHT22;4194;43.408;24.626;2022-09-09T18:06:10;23.50;99.90
8313;DHT22;4194;43.408;24.626;2022-09-09T18:08:39;22.50;99.90
8313;DHT22;4194;43.408;24.626;2022-09-09T18:11:05;23.50;99.90
8313;DHT22;4194;43.408;24.626;2022-09-09T18:13:31;24.00;99.90
8313;DHT22;4194;43.408;24.626;2022-09-09T18:15:58;23.40;99.90
8313;DHT22;4194;43.408;24.626;2022-09-09T18:18:24;23.40;99.90
8313;DHT22;4194;43.408;24.626;2022-09-09T18:23:23;23.30;99.90
8313;DHT22;4194;43.408;24.626;2022-09-09T18:25:48;23.20;99.90
8313;DHT22;4194;43.408;24.626;2022-09-09T18:28:15;23.20;99.90
8313;DHT22;4194;43.408;24.626;2022-09-09T18:30:41;23.20;99.90
8313;DHT22;4194;43.408;24.626;2022-09-09T18:33:06;23.10;99.90
8313;DHT22;4194;43.408;24.626;2022-09-09T18:35:35;23.00;99.90
8313;DHT22;4194;43.408;24.626;2022-09-09T18:38:02;22.50;99.90
8313;DHT22;4194;43.408;24.626;2022-09-09T18:40:32;22.90;99.90
8313;DHT22;4194;43.408;24.626;2022-09-09T18:42:58;23.00;99.90
8313;DHT22;4194;43.408;24.626;2022-09-09T18:45:24;23.20;99.90
8313;DHT22;4194;43.408;24.626;2022-09-09T18:47:52;21.70;99.90
8313;DHT22;4194;43.408;24.626;2022-09-09T18:50:17;22.90;99.90
8313;DHT22;4194;43.408;24.626;2022-09-09T18:52:43;22.30;99.90
8313;DHT22;4194;43.408;24.626;2022-09-09T18:55:09;22.90;99.90